sensor_id;sensor_type;location;lat;lon;timestamp;pressure;altitude;pressure_sealevel;temperature;humidity
56040;BME280;43937;41.366;2.072;2023-05-25T00:01:34;100665.00;;;21.50;53.70
56040;BME280;43937;41.366;2.072;2023-05-25T00:04:00;100663.19;;;21.44;53.74
56040;BME280;43937;41.366;2.072;2023-05-25T00:06:31;100669.69;;;21.38;54.12
56040;BME280;43937;41.366;2.072;2023-05-25T00:08:57;100659.78;;;21.30;54.36
56040;BME280;43937;41.366;2.072;2023-05-25T00:12:36;100666.25;;;21.24;55.01
56040;BME280;43937;41.366;2.072;2023-05-25T00:15:03;100648.22;;;21.21;54.99
56040;BME280;43937;41.366;2.072;2023-05-25T00:17:28;100660.63;;;21.19;55.50
56040;BME280;43937;41.366;2.072;2023-05-25T00:19:57;100658.09;;;21.17;55.67
56040;BME280;43937;41.366;2.072;2023-05-25T00:22:23;100646.75;;;20.95;55.76
56040;BME280;43937;41.366;2.072;2023-05-25T00:24:48;100664.00;;;21.09;55.88
56040;BME280;43937;41.366;2.072;2023-05-25T00:27:14;100666.97;;;21.08;55.96
56040;BME280;43937;41.366;2.072;2023-05-25T00:29:39;100654.22;;;20.95;56.28
56040;BME280;43937;41.366;2.072;2023-05-25T00:32:05;100664.16;;;20.84;56.21
56040;BME280;43937;41.366;2.072;2023-05-25T00:34:30;100673.78;;;20.93;56.30
56040;BME280;43937;41.366;2.072;2023-05-25T00:37:00;100659.38;;;20.91;56.54
56040;BME280;43937;41.366;2.072;2023-05-25T00:39:25;100666.69;;;20.86;57.04
56040;BME280;43937;41.366;2.072;2023-05-25T00:41:53;100663.41;;;20.77;58.20
56040;BME280;43937;41.366;2.072;2023-05-25T00:44:19;100663.63;;;20.64;59.04
56040;BME280;43937;41.366;2.072;2023-05-25T00:46:52;100644.59;;;20.55;59.20
56040;BME280;43937;41.366;2.072;2023-05-25T00:49:20;100654.19;;;20.53;59.58
56040;BME280;43937;41.366;2.072;2023-05-25T00:51:51;100657.03;;;20.46;59.33
56040;BME280;43937;41.366;2.072;2023-05-25T00:54:18;100650.00;;;20.62;58.11
56040;BME280;43937;41.366;2.072;2023-05-25T00:56:56;100663.00;;;20.62;57.49
56040;BME280;43937;41.366;2.072;2023-05-25T00:59:32;100638.69;;;20.52;56.25
56040;BME280;43937;41.366;2.072;2023-05-25T01:02:07;100647.06;;;20.87;56.19
56040;BME280;43937;41.366;2.072;2023-05-25T01:04:40;100653.38;;;20.94;55.85
56040;BME280;43937;41.366;2.072;2023-05-25T01:07:09;100654.56;;;20.98;55.05
56040;BME280;43937;41.366;2.072;2023-05-25T01:09:40;100646.25;;;20.98;55.04
56040;BME280;43937;41.366;2.072;2023-05-25T01:12:08;100650.34;;;20.96;54.72
56040;BME280;43937;41.366;2.072;2023-05-25T01:14:35;100630.84;;;20.91;54.15
56040;BME280;43937;41.366;2.072;2023-05-25T01:17:01;100643.13;;;20.95;53.80
56040;BME280;43937;41.366;2.072;2023-05-25T01:19:27;100650.13;;;20.97;53.34
56040;BME280;43937;41.366;2.072;2023-05-25T01:22:20;100650.97;;;20.98;53.51
56040;BME280;43937;41.366;2.072;2023-05-25T01:24:55;100648.91;;;21.05;53.46
56040;BME280;43937;41.366;2.072;2023-05-25T01:27:37;100658.63;;;20.84;53.77
56040;BME280;43937;41.366;2.072;2023-05-25T01:30:05;100649.59;;;20.77;54.45
56040;BME280;43937;41.366;2.072;2023-05-25T01:32:33;100648.03;;;20.81;54.45
56040;BME280;43937;41.366;2.072;2023-05-25T01:35:00;100648.03;;;20.81;54.58
56040;BME280;43937;41.366;2.072;2023-05-25T01:37:26;100641.06;;;20.90;54.44
56040;BME280;43937;41.366;2.072;2023-05-25T01:39:52;100641.47;;;20.94;54.30
56040;BME280;43937;41.366;2.072;2023-05-25T01:42:17;100646.59;;;20.90;54.57
56040;BME280;43937;41.366;2.072;2023-05-25T01:44:43;100618.03;;;20.66;55.47
56040;BME280;43937;41.366;2.072;2023-05-25T01:47:17;100636.09;;;20.69;56.12
56040;BME280;43937;41.366;2.072;2023-05-25T01:52:37;100640.63;;;20.63;57.57
56040;BME280;43937;41.366;2.072;2023-05-25T01:55:11;100636.66;;;20.59;57.76
56040;BME280;43937;41.366;2.072;2023-05-25T01:57:41;100638.13;;;20.62;58.11
56040;BME280;43937;41.366;2.072;2023-05-25T02:00:09;100637.41;;;20.66;58.18
56040;BME280;43937;41.366;2.072;2023-05-25T02:02:37;100635.50;;;20.67;58.15
56040;BME280;43937;41.366;2.072;2023-05-25T02:05:05;100635.63;;;20.72;58.25
56040;BME280;43937;41.366;2.072;2023-05-25T02:07:30;100637.19;;;20.68;58.55
56040;BME280;43937;41.366;2.072;2023-05-25T02:09:57;100639.63;;;20.76;59.09
56040;BME280;43937;41.366;2.072;2023-05-25T02:12:23;100639.69;;;20.57;60.63
56040;BME280;43937;41.366;2.072;2023-05-25T02:14:48;100634.25;;;20.63;61.32
56040;BME280;43937;41.366;2.072;2023-05-25T02:17:14;100626.72;;;20.70;61.93
56040;BME280;43937;41.366;2.072;2023-05-25T02:19:42;100622.00;;;20.58;61.60
56040;BME280;43937;41.366;2.072;2023-05-25T02:23:27;100614.88;;;20.32;59.61
56040;BME280;43937;41.366;2.072;2023-05-25T02:25:52;100623.56;;;20.36;60.56
56040;BME280;43937;41.366;2.072;2023-05-25T02:28:18;100612.50;;;20.36;61.21
56040;BME280;43937;41.366;2.072;2023-05-25T02:30:44;100620.53;;;20.56;61.15
56040;BME280;43937;41.366;2.072;2023-05-25T02:33:09;100619.09;;;20.53;60.78
56040;BME280;43937;41.366;2.072;2023-05-25T02:35:35;100620.63;;;20.49;62.59
56040;BME280;43937;41.366;2.072;2023-05-25T02:38:02;100631.66;;;20.49;62.48
56040;BME280;43937;41.366;2.072;2023-05-25T02:40:27;100627.09;;;20.43;61.16
56040;BME280;43937;41.366;2.072;2023-05-25T02:42:53;100630.97;;;20.54;59.12
56040;BME280;43937;41.366;2.072;2023-05-25T02:45:18;100636.59;;;20.77;59.69
56040;BME280;43937;41.366;2.072;2023-05-25T02:47:43;100606.50;;;20.69;60.32
56040;BME280;43937;41.366;2.072;2023-05-25T02:50:09;100631.53;;;20.74;63.87
56040;BME280;43937;41.366;2.072;2023-05-25T02:52:35;100634.53;;;20.43;64.82
56040;BME280;43937;41.366;2.072;2023-05-25T02:55:00;100634.59;;;20.36;66.20
56040;BME280;43937;41.366;2.072;2023-05-25T02:57:28;100637.72;;;20.28;67.24
56040;BME280;43937;41.366;2.072;2023-05-25T02:59:53;100627.66;;;20.15;66.94
56040;BME280;43937;41.366;2.072;2023-05-25T03:02:19;100635.25;;;20.20;65.89
56040;BME280;43937;41.366;2.072;2023-05-25T03:04:45;100628.81;;;20.26;66.00
56040;BME280;43937;41.366;2.072;2023-05-25T03:09:20;100582.56;;;19.84;65.79
56040;BME280;43937;41.366;2.072;2023-05-25T03:11:45;100626.84;;;19.96;67.17
56040;BME280;43937;41.366;2.072;2023-05-25T03:14:11;100607.44;;;19.66;68.16
56040;BME280;43937;41.366;2.072;2023-05-25T03:16:37;100617.19;;;19.68;68.55
56040;BME280;43937;41.366;2.072;2023-05-25T03:19:03;100621.69;;;19.63;70.25
56040;BME280;43937;41.366;2.072;2023-05-25T03:21:29;100612.13;;;19.65;69.29
56040;BME280;43937;41.366;2.072;2023-05-25T03:23:55;100584.47;;;19.47;70.58
56040;BME280;43937;41.366;2.072;2023-05-25T03:26:21;100591.84;;;19.53;69.18
56040;BME280;43937;41.366;2.072;2023-05-25T03:28:47;100601.50;;;19.62;68.70
56040;BME280;43937;41.366;2.072;2023-05-25T03:31:12;100569.13;;;19.51;68.67
56040;BME280;43937;41.366;2.072;2023-05-25T03:33:38;100595.09;;;19.68;68.73
56040;BME280;43937;41.366;2.072;2023-05-25T03:36:07;100596.44;;;19.59;68.28
56040;BME280;43937;41.366;2.072;2023-05-25T03:38:35;100588.78;;;19.61;68.01
56040;BME280;43937;41.366;2.072;2023-05-25T03:41:00;100588.97;;;19.85;67.41
56040;BME280;43937;41.366;2.072;2023-05-25T03:43:25;100593.75;;;20.08;67.62
56040;BME280;43937;41.366;2.072;2023-05-25T03:45:51;100595.88;;;19.94;66.67
56040;BME280;43937;41.366;2.072;2023-05-25T03:48:16;100588.59;;;20.11;66.54
56040;BME280;43937;41.366;2.072;2023-05-25T03:50:42;100595.75;;;20.19;66.06
56040;BME280;43937;41.366;2.072;2023-05-25T03:54:27;100595.22;;;20.10;67.75
56040;BME280;43937;41.366;2.072;2023-05-25T03:56:53;100603.69;;;19.97;68.59
56040;BME280;43937;41.366;2.072;2023-05-25T03:59:18;100606.19;;;19.99;68.48
56040;BME280;43937;41.366;2.072;2023-05-25T04:01:44;100580.81;;;19.72;68.54
56040;BME280;43937;41.366;2.072;2023-05-25T04:04:09;100581.91;;;19.71;68.03
56040;BME280;43937;41.366;2.072;2023-05-25T04:06:35;100595.53;;;19.84;68.86
56040;BME280;43937;41.366;2.072;2023-05-25T04:09:04;100598.09;;;19.85;68.56
56040;BME280;43937;41.366;2.072;2023-05-25T04:11:29;100599.59;;;19.81;68.65
56040;BME280;43937;41.366;2.072;2023-05-25T04:13:55;100587.91;;;19.67;68.44
56040;BME280;43937;41.366;2.072;2023-05-25T04:16:21;100591.66;;;19.73;68.08
56040;BME280;43937;41.366;2.072;2023-05-25T04:18:46;100573.91;;;19.62;68.40
56040;BME280;43937;41.366;2.072;2023-05-25T04:21:12;100593.50;;;19.79;68.45
56040;BME280;43937;41.366;2.072;2023-05-25T04:23:37;100594.00;;;19.70;67.25
56040;BME280;43937;41.366;2.072;2023-05-25T04:26:03;100589.19;;;19.65;66.37
56040;BME280;43937;41.366;2.072;2023-05-25T04:28:30;100581.56;;;19.60;66.47
56040;BME280;43937;41.366;2.072;2023-05-25T04:30:56;100592.72;;;19.72;65.91
56040;BME280;43937;41.366;2.072;2023-05-25T04:33:22;100569.84;;;19.47;66.48
56040;BME280;43937;41.366;2.072;2023-05-25T04:35:49;100591.88;;;19.72;66.27
56040;BME280;43937;41.366;2.072;2023-05-25T04:38:15;100595.78;;;19.64;67.65
56040;BME280;43937;41.366;2.072;2023-05-25T04:40:42;100598.38;;;19.59;69.57
56040;BME280;43937;41.366;2.072;2023-05-25T04:43:07;100605.44;;;19.55;70.72
56040;BME280;43937;41.366;2.072;2023-05-25T04:45:35;100596.50;;;19.34;70.99
56040;BME280;43937;41.366;2.072;2023-05-25T04:48:01;100621.81;;;19.31;71.11
56040;BME280;43937;41.366;2.072;2023-05-25T04:50:27;100602.50;;;19.06;70.97
56040;BME280;43937;41.366;2.072;2023-05-25T04:52:53;100626.38;;;19.19;71.60
56040;BME280;43937;41.366;2.072;2023-05-25T04:55:21;100651.19;;;19.44;70.08
56040;BME280;43937;41.366;2.072;2023-05-25T04:57:46;100638.28;;;19.38;69.93
56040;BME280;43937;41.366;2.072;2023-05-25T05:00:12;100678.06;;;19.55;69.64
56040;BME280;43937;41.366;2.072;2023-05-25T05:02:39;100678.66;;;19.57;71.22
56040;BME280;43937;41.366;2.072;2023-05-25T05:05:05;100680.69;;;19.68;71.72
56040;BME280;43937;41.366;2.072;2023-05-25T05:07:31;100681.72;;;19.93;71.39
56040;BME280;43937;41.366;2.072;2023-05-25T05:10:00;100675.81;;;19.89;71.99
56040;BME280;43937;41.366;2.072;2023-05-25T05:12:26;100672.13;;;19.95;71.91
56040;BME280;43937;41.366;2.072;2023-05-25T05:14:51;100686.88;;;20.07;71.10
56040;BME280;43937;41.366;2.072;2023-05-25T05:17:17;100692.84;;;20.04;71.01
56040;BME280;43937;41.366;2.072;2023-05-25T05:19:42;100693.97;;;20.15;70.58
56040;BME280;43937;41.366;2.072;2023-05-25T05:22:08;100690.31;;;20.03;71.14
56040;BME280;43937;41.366;2.072;2023-05-25T05:24:37;100690.25;;;19.91;71.52
56040;BME280;43937;41.366;2.072;2023-05-25T05:27:02;100706.88;;;19.59;73.32
56040;BME280;43937;41.366;2.072;2023-05-25T05:29:28;100704.94;;;19.41;74.14
56040;BME280;43937;41.366;2.072;2023-05-25T05:31:54;100704.94;;;19.16;75.13
56040;BME280;43937;41.366;2.072;2023-05-25T05:34:22;100708.13;;;18.88;75.16
56040;BME280;43937;41.366;2.072;2023-05-25T05:36:48;100716.09;;;19.28;73.99
56040;BME280;43937;41.366;2.072;2023-05-25T05:39:17;100715.19;;;19.09;74.24
56040;BME280;43937;41.366;2.072;2023-05-25T05:41:45;100698.66;;;19.03;73.92
56040;BME280;43937;41.366;2.072;2023-05-25T05:44:11;100726.50;;;19.26;72.49
56040;BME280;43937;41.366;2.072;2023-05-25T05:46:37;100720.06;;;19.57;72.24
56040;BME280;43937;41.366;2.072;2023-05-25T05:49:02;100715.81;;;19.61;71.58
56040;BME280;43937;41.366;2.072;2023-05-25T05:51:28;100702.44;;;19.58;71.43
56040;BME280;43937;41.366;2.072;2023-05-25T05:53:54;100721.66;;;19.72;71.37
56040;BME280;43937;41.366;2.072;2023-05-25T05:56:22;100699.19;;;19.43;72.48
56040;BME280;43937;41.366;2.072;2023-05-25T05:58:50;100692.84;;;19.67;72.74
56040;BME280;43937;41.366;2.072;2023-05-25T06:01:18;100713.66;;;19.38;75.10
56040;BME280;43937;41.366;2.072;2023-05-25T06:03:44;100687.53;;;19.41;74.77
56040;BME280;43937;41.366;2.072;2023-05-25T06:06:10;100718.06;;;19.46;75.92
56040;BME280;43937;41.366;2.072;2023-05-25T06:08:36;100711.63;;;19.27;76.63
56040;BME280;43937;41.366;2.072;2023-05-25T06:11:01;100701.19;;;19.54;75.22
56040;BME280;43937;41.366;2.072;2023-05-25T06:13:27;100683.94;;;19.15;75.23
56040;BME280;43937;41.366;2.072;2023-05-25T06:15:53;100695.41;;;19.12;77.22
56040;BME280;43937;41.366;2.072;2023-05-25T06:18:18;100699.59;;;19.21;77.54
56040;BME280;43937;41.366;2.072;2023-05-25T06:20:44;100707.47;;;19.43;75.74
56040;BME280;43937;41.366;2.072;2023-05-25T06:23:09;100703.34;;;19.52;75.54
56040;BME280;43937;41.366;2.072;2023-05-25T06:25:38;100695.81;;;19.41;74.66
56040;BME280;43937;41.366;2.072;2023-05-25T06:28:04;100665.16;;;19.49;73.56
56040;BME280;43937;41.366;2.072;2023-05-25T06:30:30;100715.22;;;19.78;73.42
56040;BME280;43937;41.366;2.072;2023-05-25T06:32:55;100710.00;;;19.70;72.99
56040;BME280;43937;41.366;2.072;2023-05-25T06:35:21;100700.81;;;19.51;73.19
56040;BME280;43937;41.366;2.072;2023-05-25T06:37:47;100701.59;;;19.33;73.66
56040;BME280;43937;41.366;2.072;2023-05-25T06:40:16;100676.47;;;18.91;75.71
56040;BME280;43937;41.366;2.072;2023-05-25T06:42:45;100704.34;;;19.08;76.46
56040;BME280;43937;41.366;2.072;2023-05-25T06:45:11;100664.28;;;18.67;75.97
56040;BME280;43937;41.366;2.072;2023-05-25T06:47:36;100687.81;;;18.69;77.94
56040;BME280;43937;41.366;2.072;2023-05-25T06:50:03;100673.00;;;18.64;79.05
56040;BME280;43937;41.366;2.072;2023-05-25T06:52:29;100685.63;;;18.85;78.89
56040;BME280;43937;41.366;2.072;2023-05-25T06:54:55;100715.66;;;18.54;80.85
56040;BME280;43937;41.366;2.072;2023-05-25T06:57:21;100704.03;;;18.91;79.35
56040;BME280;43937;41.366;2.072;2023-05-25T06:59:47;100721.94;;;19.13;79.66
56040;BME280;43937;41.366;2.072;2023-05-25T07:02:12;100731.81;;;19.28;78.81
56040;BME280;43937;41.366;2.072;2023-05-25T07:05:56;100723.59;;;19.46;79.22
56040;BME280;43937;41.366;2.072;2023-05-25T07:08:22;100742.59;;;19.54;79.36
56040;BME280;43937;41.366;2.072;2023-05-25T07:10:48;100720.97;;;19.51;79.21
56040;BME280;43937;41.366;2.072;2023-05-25T07:13:13;100760.50;;;19.77;79.41
56040;BME280;43937;41.366;2.072;2023-05-25T07:15:39;100757.91;;;19.82;79.63
56040;BME280;43937;41.366;2.072;2023-05-25T07:18:07;100759.22;;;19.79;79.17
56040;BME280;43937;41.366;2.072;2023-05-25T07:20:37;100746.63;;;19.83;79.67
56040;BME280;43937;41.366;2.072;2023-05-25T07:23:03;100754.63;;;19.92;79.65
56040;BME280;43937;41.366;2.072;2023-05-25T07:27:24;100761.72;;;19.81;77.39
56040;BME280;43937;41.366;2.072;2023-05-25T07:29:50;100750.47;;;19.82;77.50
56040;BME280;43937;41.366;2.072;2023-05-25T07:32:15;100755.94;;;19.89;77.66
56040;BME280;43937;41.366;2.072;2023-05-25T07:34:41;100740.56;;;19.93;77.10
56040;BME280;43937;41.366;2.072;2023-05-25T07:37:07;100719.91;;;19.77;77.25
56040;BME280;43937;41.366;2.072;2023-05-25T07:39:32;100772.34;;;20.02;78.62
56040;BME280;43937;41.366;2.072;2023-05-25T07:41:58;100764.97;;;19.96;78.22
56040;BME280;43937;41.366;2.072;2023-05-25T07:44:24;100774.97;;;19.97;78.26
56040;BME280;43937;41.366;2.072;2023-05-25T07:46:50;100773.91;;;19.98;77.99
56040;BME280;43937;41.366;2.072;2023-05-25T07:49:15;100751.84;;;19.73;79.10
56040;BME280;43937;41.366;2.072;2023-05-25T07:51:42;100776.03;;;19.96;79.62
56040;BME280;43937;41.366;2.072;2023-05-25T07:54:08;100772.28;;;20.09;78.13
56040;BME280;43937;41.366;2.072;2023-05-25T07:56:34;100774.38;;;20.13;78.20
56040;BME280;43937;41.366;2.072;2023-05-25T07:59:00;100773.91;;;20.17;77.90
56040;BME280;43937;41.366;2.072;2023-05-25T08:01:26;100784.28;;;20.21;77.96
56040;BME280;43937;41.366;2.072;2023-05-25T08:03:51;100780.66;;;20.02;77.98
56040;BME280;43937;41.366;2.072;2023-05-25T08:06:17;100781.72;;;20.01;77.68
56040;BME280;43937;41.366;2.072;2023-05-25T08:08:43;100785.94;;;19.85;78.97
56040;BME280;43937;41.366;2.072;2023-05-25T08:11:10;100786.53;;;19.87;79.73
56040;BME280;43937;41.366;2.072;2023-05-25T08:13:36;100796.09;;;20.10;79.52
56040;BME280;43937;41.366;2.072;2023-05-25T08:16:01;100757.47;;;20.03;79.45
56040;BME280;43937;41.366;2.072;2023-05-25T08:18:27;100776.41;;;20.00;79.42
56040;BME280;43937;41.366;2.072;2023-05-25T08:20:52;100793.81;;;20.25;80.35
56040;BME280;43937;41.366;2.072;2023-05-25T08:23:18;100791.41;;;20.47;79.33
56040;BME280;43937;41.366;2.072;2023-05-25T08:25:43;100796.84;;;20.61;78.25
56040;BME280;43937;41.366;2.072;2023-05-25T08:28:09;100758.31;;;20.41;77.67
56040;BME280;43937;41.366;2.072;2023-05-25T08:30:34;100777.31;;;20.55;76.53
56040;BME280;43937;41.366;2.072;2023-05-25T08:32:59;100810.19;;;20.82;77.36
56040;BME280;43937;41.366;2.072;2023-05-25T08:35:25;100816.16;;;20.97;75.46
56040;BME280;43937;41.366;2.072;2023-05-25T08:37:50;100822.69;;;21.03;76.45
56040;BME280;43937;41.366;2.072;2023-05-25T08:40:17;100800.06;;;20.76;75.61
56040;BME280;43937;41.366;2.072;2023-05-25T08:42:45;100821.25;;;20.82;76.04
56040;BME280;43937;41.366;2.072;2023-05-25T08:45:11;100800.28;;;20.56;76.93
56040;BME280;43937;41.366;2.072;2023-05-25T08:47:43;100823.41;;;20.80;77.98
56040;BME280;43937;41.366;2.072;2023-05-25T08:50:10;100830.47;;;20.94;78.01
56040;BME280;43937;41.366;2.072;2023-05-25T08:52:46;100819.59;;;20.93;77.40
56040;BME280;43937;41.366;2.072;2023-05-25T08:55:15;100838.81;;;21.06;75.85
56040;BME280;43937;41.366;2.072;2023-05-25T08:57:48;100820.63;;;20.80;76.39
56040;BME280;43937;41.366;2.072;2023-05-25T09:00:21;100818.25;;;20.65;77.76
56040;BME280;43937;41.366;2.072;2023-05-25T09:03:06;100826.34;;;20.67;77.66
56040;BME280;43937;41.366;2.072;2023-05-25T09:05:34;100802.84;;;20.57;77.47
56040;BME280;43937;41.366;2.072;2023-05-25T09:08:04;100829.69;;;20.87;77.66
56040;BME280;43937;41.366;2.072;2023-05-25T09:10:33;100821.81;;;21.02;76.68
56040;BME280;43937;41.366;2.072;2023-05-25T09:13:00;100814.00;;;20.81;77.30
56040;BME280;43937;41.366;2.072;2023-05-25T09:15:26;100804.25;;;20.78;78.39
56040;BME280;43937;41.366;2.072;2023-05-25T09:17:52;100832.28;;;21.00;78.43
56040;BME280;43937;41.366;2.072;2023-05-25T09:20:21;100804.50;;;20.77;79.30
56040;BME280;43937;41.366;2.072;2023-05-25T09:22:48;100817.41;;;20.83;78.91
56040;BME280;43937;41.366;2.072;2023-05-25T09:25:17;100829.53;;;21.00;77.81
56040;BME280;43937;41.366;2.072;2023-05-25T09:27:46;100830.84;;;21.28;77.22
56040;BME280;43937;41.366;2.072;2023-05-25T09:30:11;100834.03;;;21.43;76.35
56040;BME280;43937;41.366;2.072;2023-05-25T09:32:38;100835.41;;;21.64;75.64
56040;BME280;43937;41.366;2.072;2023-05-25T09:35:11;100817.91;;;21.40;75.63
56040;BME280;43937;41.366;2.072;2023-05-25T09:37:37;100818.06;;;21.27;75.00
56040;BME280;43937;41.366;2.072;2023-05-25T09:40:05;100834.19;;;21.30;74.53
56040;BME280;43937;41.366;2.072;2023-05-25T09:42:32;100835.63;;;21.51;74.31
56040;BME280;43937;41.366;2.072;2023-05-25T09:44:58;100844.44;;;21.60;73.39
56040;BME280;43937;41.366;2.072;2023-05-25T09:47:29;100855.72;;;21.88;71.86
56040;BME280;43937;41.366;2.072;2023-05-25T09:49:55;100833.53;;;21.88;70.95
56040;BME280;43937;41.366;2.072;2023-05-25T09:52:21;100856.09;;;22.04;70.66
56040;BME280;43937;41.366;2.072;2023-05-25T09:54:49;100819.69;;;21.88;70.17
56040;BME280;43937;41.366;2.072;2023-05-25T09:57:15;100855.09;;;21.86;71.00
56040;BME280;43937;41.366;2.072;2023-05-25T09:59:41;100847.03;;;21.85;71.38
56040;BME280;43937;41.366;2.072;2023-05-25T10:02:07;100849.22;;;22.41;69.56
56040;BME280;43937;41.366;2.072;2023-05-25T10:04:33;100865.94;;;22.94;68.20
56040;BME280;43937;41.366;2.072;2023-05-25T10:07:00;100868.66;;;23.05;68.28
56040;BME280;43937;41.366;2.072;2023-05-25T10:09:28;100855.28;;;23.02;66.20
56040;BME280;43937;41.366;2.072;2023-05-25T10:11:56;100860.97;;;22.96;65.62
56040;BME280;43937;41.366;2.072;2023-05-25T10:14:27;100862.53;;;22.92;65.37
56040;BME280;43937;41.366;2.072;2023-05-25T10:16:54;100837.34;;;22.81;66.78
56040;BME280;43937;41.366;2.072;2023-05-25T10:19:40;100855.81;;;22.88;65.82
56040;BME280;43937;41.366;2.072;2023-05-25T10:22:19;100862.59;;;23.20;66.02
56040;BME280;43937;41.366;2.072;2023-05-25T10:24:58;100862.25;;;23.45;64.58
56040;BME280;43937;41.366;2.072;2023-05-25T10:27:28;100848.94;;;23.47;64.45
56040;BME280;43937;41.366;2.072;2023-05-25T10:29:58;100869.31;;;23.53;65.43
56040;BME280;43937;41.366;2.072;2023-05-25T10:33:57;100871.50;;;23.51;63.19
56040;BME280;43937;41.366;2.072;2023-05-25T10:36:24;100863.69;;;23.19;64.84
56040;BME280;43937;41.366;2.072;2023-05-25T10:38:50;100864.00;;;23.06;65.75
56040;BME280;43937;41.366;2.072;2023-05-25T10:41:18;100851.28;;;23.10;65.72
56040;BME280;43937;41.366;2.072;2023-05-25T10:43:47;100856.25;;;22.96;65.57
56040;BME280;43937;41.366;2.072;2023-05-25T10:46:14;100849.09;;;22.60;66.64
56040;BME280;43937;41.366;2.072;2023-05-25T10:48:49;100857.25;;;22.78;65.56
56040;BME280;43937;41.366;2.072;2023-05-25T10:51:18;100862.88;;;22.31;66.29
56040;BME280;43937;41.366;2.072;2023-05-25T10:53:46;100851.50;;;22.45;65.94
56040;BME280;43937;41.366;2.072;2023-05-25T10:56:13;100826.19;;;22.41;65.15
56040;BME280;43937;41.366;2.072;2023-05-25T10:58:42;100843.19;;;22.33;65.86
56040;BME280;43937;41.366;2.072;2023-05-25T11:01:12;100853.78;;;22.59;65.90
56040;BME280;43937;41.366;2.072;2023-05-25T11:06:17;100850.94;;;22.54;65.63
56040;BME280;43937;41.366;2.072;2023-05-25T11:08:55;100863.47;;;22.22;68.24
56040;BME280;43937;41.366;2.072;2023-05-25T11:17:14;100877.91;;;22.12;70.61
56040;BME280;43937;41.366;2.072;2023-05-25T11:19:50;100886.50;;;22.46;70.05
56040;BME280;43937;41.366;2.072;2023-05-25T11:22:20;100885.19;;;22.36;69.80
56040;BME280;43937;41.366;2.072;2023-05-25T11:24:53;100885.31;;;22.18;70.22
56040;BME280;43937;41.366;2.072;2023-05-25T11:27:28;100868.00;;;21.92;71.17
56040;BME280;43937;41.366;2.072;2023-05-25T11:29:58;100895.13;;;22.14;71.82
56040;BME280;43937;41.366;2.072;2023-05-25T11:32:24;100888.53;;;22.15;71.41
56040;BME280;43937;41.366;2.072;2023-05-25T11:34:52;100857.63;;;22.00;71.11
56040;BME280;43937;41.366;2.072;2023-05-25T11:37:22;100860.81;;;22.15;71.12
56040;BME280;43937;41.366;2.072;2023-05-25T11:39:53;100896.84;;;22.15;71.10
56040;BME280;43937;41.366;2.072;2023-05-25T11:42:20;100900.28;;;21.99;71.64
56040;BME280;43937;41.366;2.072;2023-05-25T11:44:46;100882.38;;;21.59;73.52
56040;BME280;43937;41.366;2.072;2023-05-25T11:47:13;100870.94;;;21.07;76.02
56040;BME280;43937;41.366;2.072;2023-05-25T11:49:42;100903.13;;;21.20;76.84
56040;BME280;43937;41.366;2.072;2023-05-25T11:52:15;100869.34;;;20.81;78.63
56040;BME280;43937;41.366;2.072;2023-05-25T11:54:41;100902.41;;;20.94;78.45
56040;BME280;43937;41.366;2.072;2023-05-25T11:57:18;100901.94;;;20.79;79.07
56040;BME280;43937;41.366;2.072;2023-05-25T11:59:48;100887.31;;;20.72;80.25
56040;BME280;43937;41.366;2.072;2023-05-25T12:02:14;100887.47;;;20.58;80.77
56040;BME280;43937;41.366;2.072;2023-05-25T12:04:40;100892.84;;;20.53;81.90
56040;BME280;43937;41.366;2.072;2023-05-25T12:07:16;100902.94;;;20.41;82.24
56040;BME280;43937;41.366;2.072;2023-05-25T12:09:42;100890.72;;;20.30;82.22
56040;BME280;43937;41.366;2.072;2023-05-25T12:12:07;100859.31;;;20.25;81.10
56040;BME280;43937;41.366;2.072;2023-05-25T12:14:33;100893.41;;;20.12;83.40
56040;BME280;43937;41.366;2.072;2023-05-25T12:17:01;100893.66;;;20.10;83.63
56040;BME280;43937;41.366;2.072;2023-05-25T12:19:26;100897.19;;;20.18;83.40
56040;BME280;43937;41.366;2.072;2023-05-25T12:21:52;100897.72;;;20.08;83.22
56040;BME280;43937;41.366;2.072;2023-05-25T12:24:18;100905.88;;;20.46;81.83
56040;BME280;43937;41.366;2.072;2023-05-25T12:26:51;100873.44;;;20.35;81.71
56040;BME280;43937;41.366;2.072;2023-05-25T12:29:24;100889.09;;;20.66;81.05
56040;BME280;43937;41.366;2.072;2023-05-25T12:31:50;100889.81;;;20.36;81.79
56040;BME280;43937;41.366;2.072;2023-05-25T12:34:19;100868.38;;;20.32;80.68
56040;BME280;43937;41.366;2.072;2023-05-25T12:36:50;100896.91;;;20.88;79.85
56040;BME280;43937;41.366;2.072;2023-05-25T12:40:44;100876.03;;;20.92;78.59
56040;BME280;43937;41.366;2.072;2023-05-25T12:43:10;100882.00;;;21.07;78.43
56040;BME280;43937;41.366;2.072;2023-05-25T12:45:40;100896.25;;;20.74;79.19
56040;BME280;43937;41.366;2.072;2023-05-25T12:48:06;100887.38;;;21.02;77.25
56040;BME280;43937;41.366;2.072;2023-05-25T12:50:32;100901.44;;;21.37;75.38
56040;BME280;43937;41.366;2.072;2023-05-25T12:53:03;100903.88;;;21.27;75.99
56040;BME280;43937;41.366;2.072;2023-05-25T12:55:32;100911.94;;;21.77;74.43
56040;BME280;43937;41.366;2.072;2023-05-25T12:58:02;100911.59;;;21.85;73.81
56040;BME280;43937;41.366;2.072;2023-05-25T13:00:38;100879.19;;;21.44;72.47
56040;BME280;43937;41.366;2.072;2023-05-25T13:03:05;100905.63;;;22.00;71.82
56040;BME280;43937;41.366;2.072;2023-05-25T13:05:35;100911.81;;;22.26;71.36
56040;BME280;43937;41.366;2.072;2023-05-25T13:08:02;100919.06;;;21.96;71.96
56040;BME280;43937;41.366;2.072;2023-05-25T13:10:29;100918.84;;;21.98;73.29
56040;BME280;43937;41.366;2.072;2023-05-25T13:12:55;100915.34;;;21.31;75.22
56040;BME280;43937;41.366;2.072;2023-05-25T13:15:23;100906.97;;;21.37;75.11